createdAt,value
2023-03-04T00:02:18.673Z,37.97
2023-03-04T00:04:44.864Z,23.75
2023-03-04T00:07:11.064Z,32.97
2023-03-04T00:09:37.215Z,32.53
2023-03-04T00:12:03.397Z,33.80
2023-03-04T00:14:30.593Z,43.00
2023-03-04T00:16:58.028Z,35.63
2023-03-04T00:19:25.385Z,35.70
2023-03-04T00:21:51.579Z,34.22
2023-03-04T00:24:17.743Z,51.33
2023-03-04T00:26:43.896Z,45.35
2023-03-04T00:29:10.061Z,40.75
2023-03-04T00:31:36.291Z,40.75
2023-03-04T00:34:02.507Z,49.97
2023-03-04T00:36:28.692Z,45.72
2023-03-04T00:38:54.835Z,49.88
2023-03-04T00:41:20.952Z,36.97
2023-03-04T00:43:47.132Z,54.17
2023-03-04T00:46:13.395Z,51.33
2023-03-04T00:48:40.734Z,49.75
2023-03-04T00:51:08.120Z,55.85
2023-03-04T00:53:34.442Z,54.55
2023-03-04T00:56:00.603Z,55.92
2023-03-04T00:58:26.766Z,52.50
2023-03-04T01:00:52.898Z,49.15
2023-03-04T01:03:20.509Z,47.83
2023-03-04T01:05:47.919Z,47.00
2023-03-04T01:08:16.762Z,47.35
2023-03-04T01:10:42.928Z,51.83
2023-03-04T01:13:12.189Z,53.08
2023-03-04T01:15:38.321Z,53.70
2023-03-04T01:18:07.560Z,44.53
2023-03-04T01:20:33.737Z,48.08
2023-03-04T01:22:59.851Z,41.00
2023-03-04T01:25:26.050Z,53.88
2023-03-04T01:27:52.261Z,46.67
2023-03-04T01:30:18.394Z,53.92
2023-03-04T01:32:44.599Z,48.80
2023-03-04T01:35:11.897Z,52.92
2023-03-04T01:37:40.795Z,57.65
2023-03-04T01:40:06.968Z,54.85
2023-03-04T01:42:33.145Z,42.78
2023-03-04T01:45:02.099Z,66.72
2023-03-04T01:47:28.248Z,48.03
2023-03-04T01:49:54.426Z,51.20
2023-03-04T01:52:20.593Z,45.70
2023-03-04T01:54:46.719Z,57.20
2023-03-04T01:57:14.055Z,57.03
2023-03-04T01:59:42.976Z,62.38
2023-03-04T02:02:09.136Z,51.92
2023-03-04T02:04:35.422Z,57.40
2023-03-04T02:07:04.660Z,62.75
2023-03-04T02:09:30.826Z,35.00
2023-03-04T02:11:56.972Z,58.90
2023-03-04T02:14:29.829Z,56.30
2023-03-04T02:16:55.961Z,58.33
2023-03-04T02:19:22.118Z,54.83
2023-03-04T02:21:48.334Z,50.95
2023-03-04T02:24:14.534Z,58.20
2023-03-04T02:26:41.866Z,63.25
2023-03-04T02:29:07.999Z,45.78
2023-03-04T02:31:34.153Z,64.63
2023-03-04T02:34:00.472Z,59.30
2023-03-04T02:36:26.657Z,59.92
2023-03-04T02:38:52.854Z,65.68
2023-03-04T02:41:19.177Z,63.53
2023-03-04T02:43:45.392Z,50.53
2023-03-04T02:46:11.698Z,77.95
2023-03-04T02:48:37.946Z,53.50
2023-03-04T02:51:04.143Z,66.05
2023-03-04T02:53:36.290Z,48.47
2023-03-04T02:56:03.652Z,77.03
2023-03-04T02:58:29.897Z,62.70
2023-03-04T03:00:59.099Z,50.47
2023-03-04T03:03:25.314Z,63.75
2023-03-04T03:05:53.305Z,55.45
2023-03-04T03:08:19.476Z,68.45
2023-03-04T03:10:45.810Z,58.67
2023-03-04T03:13:12.066Z,61.50
2023-03-04T03:15:40.207Z,57.75
2023-03-04T03:18:06.363Z,57.90
2023-03-04T03:20:32.592Z,66.78
2023-03-04T03:22:58.769Z,62.80
2023-03-04T03:25:24.996Z,56.80
2023-03-04T03:27:51.164Z,55.85
2023-03-04T03:30:17.400Z,60.58
2023-03-04T03:32:43.603Z,57.03
2023-03-04T03:35:09.767Z,74.47
2023-03-04T03:40:34.348Z,61.63
2023-03-04T03:43:00.494Z,69.07
2023-03-04T03:45:26.713Z,56.65
2023-03-04T03:47:55.188Z,45.47
2023-03-04T03:50:21.330Z,78.93
2023-03-04T03:52:47.496Z,76.28
2023-03-04T03:55:13.643Z,50.40
2023-03-04T03:57:41.296Z,77.10
2023-03-04T04:00:07.400Z,68.90
2023-03-04T04:02:33.631Z,62.75
2023-03-04T04:04:59.802Z,71.38
2023-03-04T04:07:25.939Z,55.80
2023-03-04T04:09:52.143Z,57.05
2023-03-04T04:12:19.712Z,48.50
2023-03-04T04:14:48.667Z,70.60
2023-03-04T04:17:14.853Z,59.15
2023-03-04T04:19:41.046Z,67.57
2023-03-04T04:22:07.222Z,67.60
2023-03-04T04:24:34.533Z,73.20
2023-03-04T04:27:01.884Z,58.80
2023-03-04T04:29:27.997Z,67.88
2023-03-04T04:31:54.146Z,61.80
2023-03-04T04:34:20.349Z,61.00
2023-03-04T04:36:46.538Z,70.47
2023-03-04T04:39:12.706Z,65.93
2023-03-04T04:41:38.903Z,75.82
2023-03-04T04:44:07.901Z,63.33
2023-03-04T04:46:34.062Z,60.38
2023-03-04T04:49:00.238Z,62.97
2023-03-04T04:51:26.522Z,59.22
2023-03-04T04:53:53.877Z,70.63
2023-03-04T04:56:20.067Z,65.22
2023-03-04T04:58:46.245Z,71.65
2023-03-04T05:01:12.470Z,66.75
2023-03-04T05:03:40.673Z,68.95
2023-03-04T05:06:06.940Z,62.83
2023-03-04T05:08:33.200Z,63.75
2023-03-04T05:10:59.315Z,70.10
2023-03-04T05:13:25.449Z,65.63
2023-03-04T05:15:51.613Z,65.75
2023-03-04T05:18:17.793Z,62.53
2023-03-04T05:20:45.194Z,60.88
2023-03-04T05:23:11.351Z,60.95
2023-03-04T05:25:37.486Z,64.95
2023-03-04T05:28:03.624Z,74.70
2023-03-04T05:30:31.848Z,73.40
2023-03-04T05:32:57.966Z,69.85
2023-03-04T05:35:24.185Z,72.72
2023-03-04T05:37:50.365Z,62.08
2023-03-04T05:40:18.017Z,67.63
2023-03-04T05:42:48.399Z,68.80
2023-03-04T05:45:14.568Z,64.95
2023-03-04T05:47:40.740Z,73.78
2023-03-04T05:50:13.226Z,64.57
2023-03-04T05:52:39.586Z,62.90
2023-03-04T05:55:05.738Z,63.85
2023-03-04T05:57:32.517Z,65.18
2023-03-04T05:59:58.744Z,67.40
2023-03-04T06:02:24.975Z,69.07
2023-03-04T06:04:51.137Z,66.20
2023-03-04T06:07:17.345Z,66.95
2023-03-04T06:09:43.488Z,63.92
2023-03-04T06:12:10.825Z,64.55
2023-03-04T06:14:38.811Z,60.25
2023-03-04T06:17:06.114Z,61.65
2023-03-04T06:19:32.249Z,66.60
2023-03-04T06:21:58.418Z,74.80
2023-03-04T06:24:24.586Z,65.50
2023-03-04T06:26:50.784Z,59.92
2023-03-04T06:29:16.904Z,72.80
2023-03-04T06:31:44.219Z,67.57
2023-03-04T06:34:10.401Z,61.53
2023-03-04T06:36:36.643Z,63.20
2023-03-04T06:39:02.824Z,63.50
2023-03-04T06:41:33.530Z,55.03
2023-03-04T06:43:59.656Z,57.63
2023-03-04T06:46:25.909Z,54.97
2023-03-04T06:48:55.150Z,66.15
2023-03-04T06:51:22.544Z,64.47
2023-03-04T06:53:48.716Z,55.33
2023-03-04T06:56:14.833Z,60.70
2023-03-04T07:01:25.265Z,57.47
2023-03-04T07:03:51.498Z,70.70
2023-03-04T07:06:18.837Z,57.60
2023-03-04T07:08:44.949Z,56.88
2023-03-04T07:11:11.103Z,64.50
2023-03-04T07:13:37.312Z,69.90
2023-03-04T07:16:03.473Z,73.25
2023-03-04T07:18:29.628Z,68.20
2023-03-04T07:20:57.329Z,60.58
2023-03-04T07:23:23.567Z,61.72
2023-03-04T07:25:49.761Z,56.92
2023-03-04T07:28:16.048Z,61.78
2023-03-04T07:30:42.187Z,72.90
2023-03-04T07:33:08.362Z,74.05
2023-03-04T07:35:34.613Z,56.88
2023-03-04T07:38:00.766Z,57.65
2023-03-04T07:40:26.939Z,65.95
2023-03-04T07:42:59.669Z,71.93
2023-03-04T07:45:25.849Z,51.42
2023-03-04T07:47:52.146Z,61.70
2023-03-04T07:50:21.066Z,59.67
2023-03-04T07:52:47.246Z,65.63
2023-03-04T07:55:13.424Z,45.92
2023-03-04T07:57:39.542Z,74.40
2023-03-04T08:00:08.581Z,69.13
2023-03-04T08:02:34.727Z,54.05
2023-03-04T08:05:00.912Z,56.42
2023-03-04T08:07:27.081Z,57.38
2023-03-04T08:09:53.248Z,62.92
2023-03-04T08:12:19.394Z,53.78
2023-03-04T08:14:45.510Z,67.10
2023-03-04T08:17:11.658Z,52.75
2023-03-04T08:19:37.810Z,59.70
2023-03-04T08:22:04.021Z,58.83
2023-03-04T08:24:30.245Z,70.90
2023-03-04T08:26:56.434Z,61.85
2023-03-04T08:29:22.604Z,62.28
2023-03-04T08:31:49.321Z,67.30
2023-03-04T08:34:15.691Z,59.80
2023-03-04T08:36:41.878Z,49.90
2023-03-04T08:39:08.037Z,63.50
2023-03-04T08:41:34.193Z,65.95
2023-03-04T08:44:00.325Z,64.53
2023-03-04T08:46:26.616Z,66.40
2023-03-04T08:48:52.923Z,76.40
2023-03-04T08:51:19.069Z,59.60
2023-03-04T08:53:48.133Z,71.03
2023-03-04T08:56:14.364Z,61.65
2023-03-04T08:58:40.597Z,70.28
2023-03-04T09:01:06.781Z,68.13
2023-03-04T09:03:33.239Z,68.47
2023-03-04T09:05:59.428Z,64.45
2023-03-04T09:08:28.685Z,68.40
2023-03-04T09:10:54.884Z,67.35
2023-03-04T09:13:21.112Z,64.95
2023-03-04T09:15:47.340Z,70.60
2023-03-04T09:18:13.623Z,67.70
2023-03-04T09:20:39.769Z,64.97
2023-03-04T09:23:05.979Z,63.53
2023-03-04T09:25:32.155Z,67.55
2023-03-04T09:27:58.348Z,72.55
2023-03-04T09:30:24.642Z,61.90
2023-03-04T09:32:50.857Z,56.50
2023-03-04T09:35:17.075Z,54.92
2023-03-04T09:37:46.347Z,54.47
2023-03-04T09:40:12.568Z,63.05
2023-03-04T09:42:38.749Z,55.55
2023-03-04T09:45:04.943Z,55.72
2023-03-04T09:47:31.112Z,70.07
2023-03-04T09:49:57.297Z,71.95
2023-03-04T09:52:26.504Z,66.32
2023-03-04T09:54:52.669Z,66.80
2023-03-04T09:57:18.823Z,63.60
2023-03-04T09:59:44.983Z,60.30
2023-03-04T10:02:11.152Z,64.85
2023-03-04T10:04:37.405Z,61.67
2023-03-04T10:07:03.559Z,58.70
2023-03-04T10:09:29.806Z,62.67
2023-03-04T10:11:56.004Z,66.35
2023-03-04T10:14:22.242Z,51.72
2023-03-04T10:16:48.417Z,69.72
2023-03-04T10:19:14.590Z,64.63
2023-03-04T10:21:40.738Z,61.72
2023-03-04T10:24:06.888Z,59.22
2023-03-04T10:26:33.126Z,54.58
2023-03-04T10:28:59.335Z,63.13
2023-03-04T10:31:25.511Z,59.53
2023-03-04T10:33:51.746Z,56.10
2023-03-04T10:36:17.944Z,57.00
2023-03-04T10:38:44.138Z,50.42
2023-03-04T10:41:10.358Z,60.30
2023-03-04T10:43:36.510Z,64.05
2023-03-04T10:46:02.671Z,60.35
2023-03-04T10:48:28.849Z,60.13
2023-03-04T10:50:55.028Z,52.63
2023-03-04T10:53:21.252Z,63.72
2023-03-04T10:55:47.414Z,48.50
2023-03-04T10:58:13.601Z,53.15
2023-03-04T11:00:39.738Z,55.92
2023-03-04T11:03:05.924Z,53.83
2023-03-04T11:05:32.135Z,46.28
2023-03-04T11:07:58.509Z,50.03
2023-03-04T11:10:24.801Z,49.55
2023-03-04T11:12:51.012Z,48.25
2023-03-04T11:15:17.200Z,44.00
2023-03-04T11:17:43.380Z,51.28
2023-03-04T11:20:12.418Z,48.97
2023-03-04T11:22:38.616Z,43.17
2023-03-04T11:25:04.819Z,45.53
2023-03-04T11:27:32.144Z,49.67
2023-03-04T11:29:58.329Z,42.95
2023-03-04T11:32:24.642Z,45.42
2023-03-04T11:34:50.844Z,41.58
2023-03-04T11:37:17.100Z,40.33
2023-03-04T11:39:43.256Z,38.75
2023-03-04T11:42:09.479Z,40.35
2023-03-04T11:44:35.689Z,37.35
2023-03-04T11:47:01.881Z,41.65
2023-03-04T11:49:30.824Z,41.13
2023-03-04T11:51:56.984Z,39.53
2023-03-04T11:54:23.136Z,36.47
2023-03-04T11:56:49.302Z,44.10
2023-03-04T11:59:15.468Z,36.80
2023-03-04T12:01:41.662Z,37.35
2023-03-04T12:04:07.920Z,45.17
2023-03-04T12:06:34.170Z,44.60
2023-03-04T12:09:00.352Z,36.80
2023-03-04T12:11:26.485Z,42.67
2023-03-04T12:13:52.638Z,42.05
2023-03-04T12:16:19.280Z,52.72
2023-03-04T12:18:45.497Z,44.78
2023-03-04T12:21:11.634Z,42.35
2023-03-04T12:23:37.814Z,41.53
2023-03-04T12:26:04.027Z,42.67
2023-03-04T12:28:30.215Z,45.80
2023-03-04T12:30:56.360Z,38.58
2023-03-04T12:33:22.633Z,38.03
2023-03-04T12:35:48.776Z,34.97
2023-03-04T12:38:16.421Z,36.88
2023-03-04T12:40:42.582Z,38.72
2023-03-04T12:43:08.740Z,38.08
2023-03-04T12:45:34.920Z,41.28
2023-03-04T12:48:01.122Z,36.58
2023-03-04T12:50:27.375Z,28.02
2023-03-04T12:52:53.520Z,34.33
2023-03-04T12:55:19.672Z,37.42
2023-03-04T12:57:45.797Z,32.88
2023-03-04T13:00:11.940Z,32.17
2023-03-04T13:02:38.280Z,39.95
2023-03-04T13:05:04.518Z,34.63
2023-03-04T13:07:30.674Z,36.80
2023-03-04T13:09:58.443Z,30.65
2023-03-04T13:12:24.635Z,34.92
2023-03-04T13:14:50.776Z,38.88
2023-03-04T13:17:16.964Z,38.85
2023-03-04T13:19:43.124Z,37.88
2023-03-04T13:22:09.290Z,38.13
2023-03-04T13:24:37.532Z,37.17
2023-03-04T13:27:03.697Z,31.23
2023-03-04T13:29:29.915Z,33.90
2023-03-04T13:31:56.327Z,31.27
2023-03-04T13:34:22.543Z,39.85
2023-03-04T13:36:48.687Z,37.13
2023-03-04T13:39:14.838Z,34.33
2023-03-04T13:41:41.039Z,42.22
2023-03-04T13:44:07.233Z,37.53
2023-03-04T13:46:33.695Z,39.70
2023-03-04T13:48:59.844Z,36.47
2023-03-04T13:51:29.809Z,39.50
2023-03-04T13:53:56.461Z,42.40
2023-03-04T13:56:22.594Z,33.15
2023-03-04T13:58:48.751Z,36.80
2023-03-04T14:01:14.972Z,41.20
2023-03-04T14:03:42.838Z,39.47
2023-03-04T14:06:10.070Z,35.80
2023-03-04T14:08:36.241Z,36.75
2023-03-04T14:11:02.404Z,43.08
2023-03-04T14:13:28.617Z,36.72
2023-03-04T14:15:54.748Z,39.63
2023-03-04T14:18:20.864Z,35.83
2023-03-04T14:20:47.086Z,36.70
2023-03-04T14:23:13.215Z,36.22
2023-03-04T14:25:39.343Z,31.52
2023-03-04T14:28:05.477Z,37.47
2023-03-04T14:30:42.295Z,32.25
2023-03-04T14:33:09.170Z,34.13
2023-03-04T14:35:35.379Z,33.03
2023-03-04T14:38:01.568Z,36.00
2023-03-04T14:40:27.703Z,38.97
2023-03-04T14:42:53.856Z,38.72
2023-03-04T14:45:19.967Z,33.05
2023-03-04T14:47:46.168Z,42.90
2023-03-04T14:50:12.380Z,33.13
2023-03-04T14:52:38.592Z,33.92
2023-03-04T14:55:04.802Z,37.22
2023-03-04T14:57:30.997Z,34.30
2023-03-04T14:59:57.206Z,34.28
2023-03-04T15:02:23.444Z,34.78
2023-03-04T15:04:49.670Z,34.80
2023-03-04T15:07:15.790Z,29.48
2023-03-04T15:09:41.921Z,38.30
2023-03-04T15:12:08.168Z,40.00
2023-03-04T15:14:34.310Z,37.55
2023-03-04T15:17:00.558Z,34.13
2023-03-04T15:19:26.745Z,33.50
2023-03-04T15:21:52.929Z,34.38
2023-03-04T15:24:20.311Z,33.90
2023-03-04T15:26:46.473Z,37.08
2023-03-04T15:29:12.681Z,32.50
2023-03-04T15:31:38.855Z,35.10
2023-03-04T15:34:05.006Z,38.17
2023-03-04T15:36:31.191Z,32.70
2023-03-04T15:38:57.347Z,35.70
2023-03-04T15:41:23.479Z,34.60
2023-03-04T15:43:49.622Z,36.40
2023-03-04T15:46:17.922Z,36.13
2023-03-04T15:48:44.194Z,40.17
2023-03-04T15:51:10.388Z,37.05
2023-03-04T15:53:36.606Z,34.35
2023-03-04T15:56:02.741Z,29.55
2023-03-04T15:58:28.922Z,30.35
2023-03-04T16:00:55.202Z,33.92
2023-03-04T16:03:21.378Z,33.53
2023-03-04T16:05:47.563Z,32.10
2023-03-04T16:08:13.684Z,37.35
2023-03-04T16:10:39.841Z,34.60
2023-03-04T16:13:06.005Z,28.08
2023-03-04T16:15:32.173Z,34.78
2023-03-04T16:17:58.392Z,31.55
2023-03-04T16:20:26.880Z,28.30
2023-03-04T16:22:53.054Z,33.72
2023-03-04T16:25:19.248Z,34.22
2023-03-04T16:27:45.382Z,29.60
2023-03-04T16:30:11.520Z,25.85
2023-03-04T16:32:37.708Z,29.52
2023-03-04T16:35:03.926Z,28.58
2023-03-04T16:37:30.047Z,31.92
2023-03-04T16:39:56.225Z,28.02
2023-03-04T16:42:25.470Z,34.00
2023-03-04T16:44:51.655Z,25.83
2023-03-04T16:47:17.849Z,35.85
2023-03-04T16:49:43.980Z,33.85
2023-03-04T16:52:10.108Z,36.13
2023-03-04T16:54:36.301Z,36.83
2023-03-04T16:57:02.478Z,38.80
2023-03-04T16:59:28.652Z,36.60
2023-03-04T17:01:54.917Z,32.85
2023-03-04T17:04:22.579Z,35.58
2023-03-04T17:06:48.761Z,34.38
2023-03-04T17:09:15.003Z,28.15
2023-03-04T17:11:41.264Z,31.55
2023-03-04T17:14:07.387Z,32.03
2023-03-04T17:16:33.552Z,32.25
2023-03-04T17:18:59.691Z,32.22
2023-03-04T17:21:25.883Z,32.80
2023-03-04T17:23:52.050Z,29.60
2023-03-04T17:26:18.233Z,35.72
2023-03-04T17:28:44.349Z,26.75
2023-03-04T17:31:10.528Z,23.63
2023-03-04T17:33:36.738Z,27.00
2023-03-04T17:36:02.946Z,31.85
2023-03-04T17:38:29.145Z,26.77
2023-03-04T17:49:25.378Z,30.45
2023-03-04T17:51:51.547Z,31.70
2023-03-04T17:54:17.751Z,24.60
2023-03-04T17:56:43.938Z,27.05
2023-03-04T17:59:10.064Z,33.47
2023-03-04T18:01:36.245Z,34.72
2023-03-04T18:04:02.436Z,24.73
2023-03-04T18:06:28.603Z,33.63
2023-03-04T18:08:54.791Z,42.60
2023-03-04T18:11:20.919Z,32.80
2023-03-04T18:13:47.089Z,26.63
2023-03-04T18:16:13.278Z,26.50
2023-03-04T18:18:39.429Z,26.38
2023-03-04T18:21:05.588Z,38.47
2023-03-04T18:23:31.762Z,43.13
2023-03-04T18:25:59.138Z,32.95
2023-03-04T18:28:25.337Z,234.27
2023-03-04T18:30:51.514Z,48.83
2023-03-04T18:33:17.637Z,30.13
2023-03-04T18:35:43.889Z,32.67
2023-03-04T18:38:10.071Z,28.80
2023-03-04T18:40:36.261Z,28.38
2023-03-04T18:43:02.432Z,34.03
2023-03-04T18:45:28.633Z,32.67
2023-03-04T18:47:54.812Z,37.22
2023-03-04T18:50:20.998Z,35.67
2023-03-04T18:52:47.128Z,38.05
2023-03-04T18:55:13.280Z,45.72
2023-03-04T18:57:39.437Z,41.97
2023-03-04T19:00:05.652Z,40.88
2023-03-04T19:02:31.865Z,39.60
2023-03-04T19:04:58.037Z,45.53
2023-03-04T19:07:24.184Z,45.88
2023-03-04T19:09:50.299Z,44.35
2023-03-04T19:12:16.473Z,44.58
2023-03-04T19:14:42.670Z,41.17
2023-03-04T19:17:08.833Z,52.75
2023-03-04T19:19:35.013Z,48.60
2023-03-04T19:22:01.180Z,49.97
2023-03-04T19:27:17.391Z,31.67
2023-03-04T19:29:43.517Z,36.28
2023-03-04T19:32:09.703Z,32.40
2023-03-04T19:34:35.939Z,34.83
2023-03-04T19:37:04.024Z,31.33
2023-03-04T19:39:30.146Z,27.15
2023-03-04T19:41:56.317Z,27.25
2023-03-04T19:44:22.505Z,36.40
2023-03-04T19:46:48.668Z,30.40
2023-03-04T19:49:14.835Z,35.55
2023-03-04T19:51:41.002Z,34.22
2023-03-04T19:54:07.189Z,36.28
2023-03-04T19:56:33.334Z,29.00
2023-03-04T19:58:59.514Z,35.22
2023-03-04T20:01:25.674Z,36.05
2023-03-04T20:03:51.841Z,26.48
2023-03-04T20:06:18.040Z,30.00
2023-03-04T20:08:44.197Z,30.98
2023-03-04T20:11:16.335Z,31.17
2023-03-04T20:13:42.533Z,35.63
2023-03-04T20:16:08.706Z,33.78
2023-03-04T20:18:34.934Z,38.97
2023-03-04T20:21:01.266Z,30.17
2023-03-04T20:23:29.263Z,32.20
2023-03-04T20:25:55.588Z,42.30
2023-03-04T20:28:21.782Z,36.20
2023-03-04T20:30:47.959Z,39.15
2023-03-04T20:33:14.180Z,30.63
2023-03-04T20:35:40.420Z,38.35
2023-03-04T20:38:06.606Z,35.70
2023-03-04T20:40:32.747Z,34.80
2023-03-04T20:42:58.933Z,34.20
2023-03-04T20:45:25.129Z,39.00
2023-03-04T20:47:51.259Z,38.13
2023-03-04T20:50:17.384Z,32.10
2023-03-04T20:52:43.656Z,31.60
2023-03-04T20:55:09.907Z,32.53
2023-03-04T20:57:36.098Z,34.97
2023-03-04T21:00:02.281Z,37.33
2023-03-04T21:02:28.475Z,31.73
2023-03-04T21:04:54.612Z,45.05
2023-03-04T21:07:20.915Z,34.80
2023-03-04T21:09:47.096Z,34.85
2023-03-04T21:12:16.101Z,35.00
2023-03-04T21:14:42.293Z,35.08
2023-03-04T21:17:08.628Z,32.42
2023-03-04T21:19:34.776Z,33.80
2023-03-04T21:22:00.922Z,36.55
2023-03-04T21:24:27.105Z,41.17
2023-03-04T21:26:53.529Z,32.47
2023-03-04T21:29:19.664Z,35.20
2023-03-04T21:31:46.694Z,31.80
2023-03-04T21:34:12.934Z,32.20
2023-03-04T21:36:39.098Z,37.70
2023-03-04T21:39:05.278Z,32.63
2023-03-04T21:41:31.460Z,30.25
2023-03-04T21:43:57.639Z,33.83
2023-03-04T21:46:23.822Z,42.08
2023-03-04T21:48:50.006Z,36.50
2023-03-04T21:51:16.154Z,30.63
2023-03-04T21:53:42.377Z,29.20
2023-03-04T21:56:08.504Z,29.92
2023-03-04T21:58:34.683Z,33.22
2023-03-04T22:01:00.886Z,34.78
2023-03-04T22:03:36.118Z,32.10
2023-03-04T22:06:02.302Z,33.35
2023-03-04T22:08:28.494Z,44.05
2023-03-04T22:10:55.867Z,34.15
2023-03-04T22:13:24.184Z,30.35
2023-03-04T22:15:50.493Z,35.60
2023-03-04T22:18:16.649Z,41.08
2023-03-04T22:20:45.055Z,34.25
2023-03-04T22:23:12.782Z,34.70
2023-03-04T22:25:38.987Z,30.95
2023-03-04T22:28:05.217Z,33.75
2023-03-04T22:30:31.431Z,31.90
2023-03-04T22:32:57.733Z,37.13
2023-03-04T22:35:23.952Z,35.38
2023-03-04T22:37:50.175Z,36.33
2023-03-04T22:40:16.777Z,47.22
2023-03-04T22:42:42.933Z,32.92
2023-03-04T22:45:09.071Z,37.75
2023-03-04T22:47:35.288Z,31.60
2023-03-04T22:50:01.433Z,37.03
2023-03-04T22:52:27.658Z,35.08
2023-03-04T22:55:05.554Z,33.20
2023-03-04T22:57:31.767Z,35.28
2023-03-04T22:59:57.943Z,30.25
2023-03-04T23:02:27.197Z,38.30
2023-03-04T23:04:53.374Z,31.38
2023-03-04T23:07:19.562Z,35.53
2023-03-04T23:09:45.847Z,41.35
2023-03-04T23:12:13.220Z,31.38
2023-03-04T23:14:42.312Z,36.05
2023-03-04T23:17:08.506Z,31.42
2023-03-04T23:19:34.710Z,36.97
2023-03-04T23:22:03.929Z,34.35
2023-03-04T23:24:30.113Z,31.42
2023-03-04T23:26:56.344Z,36.17
2023-03-04T23:29:23.708Z,39.78
2023-03-04T23:31:49.899Z,37.30
2023-03-04T23:34:16.112Z,35.00
2023-03-04T23:36:46.786Z,46.55
2023-03-04T23:39:12.981Z,36.90
2023-03-04T23:41:39.186Z,32.33
2023-03-04T23:44:06.541Z,29.15
2023-03-04T23:46:32.682Z,34.80
2023-03-04T23:48:58.867Z,30.77
2023-03-04T23:51:26.184Z,37.25
2023-03-04T23:53:56.532Z,37.33
2023-03-04T23:56:22.711Z,39.75
2023-03-04T23:58:48.888Z,31.27
